KEDE/EDE METAR and TAF weather

Enter ICAO airport designator
Station Type Date Time Source
KEDE METAR 2022/08/16 19:15 UTC NOAA

KEDE 161915Z AUTO 06006KT 7SM RA BKN031 BKN043 OVC060 25/23 A2994 RMK AO2 P0001 T02450229


Station Type Date Time Source
KEDE Decoded METAR 2022/08/16 19:15 UTC NOAA

Edenton, Northeastern Regional Airport, NC, United States (KEDE) 36-01-40N 076-34-02W
Aug 16, 2022 - 03:15 PM EDT / 2022.08.16 1915 UTC
Wind: from the ENE (060 degrees) at 7 MPH (6 KT):0
Visibility: 7 mile(s):0
Sky conditions: overcast
Weather: rain
Precipitation last hour: 0.01 inches
Temperature: 76.1 F (24.5 C)
Dew Point: 73.2 F (22.9 C)
Relative Humidity: 90%
Pressure (altimeter): 29.94 in. Hg (1013 hPa)
ob: KEDE 161915Z AUTO 06006KT 7SM RA BKN031 BKN043 OVC060 25/23 A2994 RMK AO2 P0001 T02450229
cycle: 19

Station Type Date Time Source
KEDE TAF UTC NOAA

Error!

Example: see airport list